Time;durP1;ratioP1;P1;durP2;ratioP2;P2;SDS_P1;SDS_P2;PMS_P1;PMS_P2;Temp;Humidity;BMP_temperature;BMP_pressure;BME280_temperature;BME280_humidity;BME280_pressure;Samples;Min_cycle;Max_cycle;Signal;HPM_P1;HPM_P2
2022/10/31 00:00:58;;;;;;;9.23;4.30;;;;;;;9.23;100.00;99488.31;5094970;28;20053;-76
2022/10/31 00:03:26;;;;;;;7.78;4.30;;;;;;;9.14;100.00;99469.34;5093374;28;20039;-76
2022/10/31 00:05:53;;;;;;;18.50;5.13;;;;;;;9.16;100.00;99491.69;5100573;28;20093;-76
2022/10/31 00:08:19;;;;;;;10.98;4.95;;;;;;;8.98;100.00;99470.16;5096582;28;20131;-76
2022/10/31 00:10:47;;;;;;;11.50;5.22;;;;;;;9.07;100.00;99484.56;5104614;28;20051;-76
2022/10/31 00:13:15;;;;;;;9.80;4.75;;;;;;;8.86;100.00;99461.47;5101473;28;20044;-76
2022/10/31 00:15:43;;;;;;;10.38;5.35;;;;;;;8.71;100.00;99456.91;5096789;28;20048;-76
2022/10/31 00:18:11;;;;;;;11.65;5.03;;;;;;;8.84;100.00;99468.94;5093148;28;20718;-76
2022/10/31 00:20:37;;;;;;;9.07;5.30;;;;;;;8.84;100.00;99465.41;5094414;28;20052;-76
2022/10/31 00:23:05;;;;;;;14.10;4.93;;;;;;;8.66;100.00;99466.38;5093170;28;20048;-76
2022/10/31 00:25:35;;;;;;;11.93;5.22;;;;;;;8.54;100.00;99464.97;5092714;28;20451;-76
2022/10/31 00:28:02;;;;;;;8.65;4.43;;;;;;;8.70;100.00;99482.28;5094019;28;20416;-76
2022/10/31 00:30:28;;;;;;;8.80;4.35;;;;;;;8.76;100.00;99484.34;5101264;28;20171;-76
2022/10/31 00:32:56;;;;;;;11.27;4.20;;;;;;;8.69;100.00;99486.88;5092930;28;20040;-76
2022/10/31 00:35:23;;;;;;;11.55;4.72;;;;;;;8.60;100.00;99467.03;5093170;28;20134;-76
2022/10/31 00:37:49;;;;;;;6.97;4.07;;;;;;;8.72;100.00;99486.53;5100186;28;20519;-76
2022/10/31 00:40:16;;;;;;;10.10;4.38;;;;;;;8.67;100.00;99475.34;5098462;28;20134;-76
2022/10/31 00:42:42;;;;;;;9.55;4.05;;;;;;;8.72;100.00;99475.69;5102807;28;20143;-76
2022/10/31 00:45:10;;;;;;;6.90;3.90;;;;;;;8.54;100.00;99450.59;5092289;28;20074;-76
2022/10/31 00:47:36;;;;;;;10.13;4.30;;;;;;;8.55;100.00;99498.34;5105979;28;20046;-76
2022/10/31 00:50:05;;;;;;;12.52;4.15;;;;;;;8.38;100.00;99457.59;5096553;28;20052;-76
2022/10/31 00:52:32;;;;;;;8.55;3.80;;;;;;;8.49;100.00;99459.19;5097106;28;20043;-76
2022/10/31 00:54:59;;;;;;;7.53;3.70;;;;;;;8.67;100.00;99478.91;5094962;28;20159;-76
2022/10/31 00:57:25;;;;;;;12.85;4.25;;;;;;;8.46;100.00;99473.06;5090392;28;20090;-76
2022/10/31 00:59:52;;;;;;;10.38;4.35;;;;;;;8.41;100.00;99459.97;5094894;28;20047;-75
2022/10/31 01:02:18;;;;;;;6.47;3.95;;;;;;;8.54;100.00;99477.69;5094121;28;20051;-76
2022/10/31 01:04:45;;;;;;;12.65;4.80;;;;;;;8.44;100.00;99458.84;5094732;28;20044;-76
2022/10/31 01:07:13;;;;;;;8.13;4.30;;;;;;;8.25;100.00;99458.06;5099652;28;20061;-76
2022/10/31 01:09:40;;;;;;;8.98;5.00;;;;;;;8.38;100.00;99481.97;5091937;28;20459;-76
2022/10/31 01:12:07;;;;;;;17.70;5.15;;;;;;;8.31;100.00;99475.53;5092016;28;20482;-76
2022/10/31 01:14:34;;;;;;;8.65;4.18;;;;;;;8.12;100.00;99461.22;5097649;28;20135;-76
2022/10/31 01:17:01;;;;;;;8.57;4.40;;;;;;;8.40;100.00;99479.09;5091341;28;20058;-76
2022/10/31 01:19:27;;;;;;;19.35;5.00;;;;;;;8.31;100.00;99472.84;5101733;28;20043;-75
2022/10/31 01:21:55;;;;;;;8.48;3.80;;;;;;;8.36;100.00;99475.88;5097384;28;20040;-76
2022/10/31 01:24:23;;;;;;;11.15;3.35;;;;;;;8.43;100.00;99479.66;5102588;28;20048;-76
2022/10/31 01:26:50;;;;;;;16.02;4.07;;;;;;;8.17;100.00;99466.13;5102900;28;20487;-76
2022/10/31 01:29:16;;;;;;;13.27;4.40;;;;;;;8.21;100.00;99451.28;5097313;28;20054;-76
2022/10/31 01:31:43;;;;;;;14.68;4.32;;;;;;;8.36;100.00;99478.59;5093494;28;20051;-76
2022/10/31 01:34:14;;;;;;;11.25;3.67;;;;;;;8.13;100.00;99454.78;5092122;28;20051;-76
2022/10/31 01:36:41;;;;;;;10.82;4.35;;;;;;;8.11;100.00;99458.66;5102826;28;20043;-76
2022/10/31 01:39:10;;;;;;;10.60;3.45;;;;;;;8.12;100.00;99450.38;5105860;28;20091;-76
2022/10/31 01:41:41;;;;;;;7.83;3.63;;;;;;;8.24;100.00;99483.44;5095064;28;20062;-76
2022/10/31 01:44:41;;;;;;;13.63;3.95;;;;;;;8.08;100.00;99459.84;5104692;28;20044;-76
2022/10/31 01:47:09;;;;;;;;;;;;;;;8.26;100.00;99480.56;5099365;28;20067;-76
2022/10/31 01:49:41;;;;;;;7.93;4.03;;;;;;;8.07;100.00;99454.56;5102885;28;20278;-76
2022/10/31 01:52:13;;;;;;;10.55;3.80;;;;;;;7.98;100.00;99461.84;5101168;28;20499;-76
2022/10/31 01:54:44;;;;;;;13.35;4.03;;;;;;;8.03;100.00;99473.03;5101047;28;20040;-76
2022/10/31 01:57:14;;;;;;;5.38;3.33;;;;;;;7.95;100.00;99459.44;5107143;28;20079;-76
2022/10/31 01:59:45;;;;;;;11.55;4.63;;;;;;;8.01;100.00;99477.75;5098495;28;20043;-76
2022/10/31 02:02:13;;;;;;;7.20;3.70;;;;;;;7.92;100.00;99454.34;5093360;28;20059;-76
2022/10/31 02:04:40;;;;;;;9.60;3.50;;;;;;;7.92;100.00;99449.78;5101429;28;20384;-76
2022/10/31 02:07:13;;;;;;;7.78;3.50;;;;;;;8.02;100.00;99468.59;5099957;28;20043;-76
2022/10/31 02:09:41;;;;;;;8.23;4.15;;;;;;;8.06;100.00;99464.56;5104871;28;20036;-76
2022/10/31 02:12:10;;;;;;;12.20;6.00;;;;;;;7.94;100.00;99449.63;5096553;28;20048;-77
2022/10/31 02:14:38;;;;;;;7.28;3.22;;;;;;;7.94;100.00;99452.31;5096548;28;20040;-76
2022/10/31 02:17:05;;;;;;;9.00;3.72;;;;;;;7.96;100.00;99458.41;5100469;28;20054;-76
2022/10/31 02:19:38;;;;;;;12.13;3.67;;;;;;;7.93;100.00;99462.31;5103004;28;20489;-76
2022/10/31 02:22:13;;;;;;;12.27;3.83;;;;;;;7.89;100.00;99449.22;5101334;28;20139;-76
2022/10/31 02:24:52;;;;;;;16.67;3.88;;;;;;;7.95;100.00;99467.56;5100688;28;20044;-76
2022/10/31 02:27:55;;;;;;;7.97;3.70;;;;;;;8.07;100.00;99477.09;5093503;28;20059;-76
2022/10/31 02:30:24;;;;;;;12.43;4.03;;;;;;;7.87;100.00;99454.81;5095078;28;20568;-76
2022/10/31 02:33:08;;;;;;;10.18;4.28;;;;;;;7.94;100.00;99465.88;5097702;28;20495;-76
2022/10/31 02:35:45;;;;;;;10.50;4.10;;;;;;;7.90;100.00;99473.47;5106253;28;20051;-76
2022/10/31 02:38:30;;;;;;;9.00;3.47;;;;;;;7.75;100.00;99454.25;5110159;28;20478;-76
2022/10/31 02:41:04;;;;;;;14.65;4.07;;;;;;;7.91;100.00;99482.44;5098444;28;20504;-76
2022/10/31 02:43:45;;;;;;;12.32;3.85;;;;;;;7.83;100.00;99460.72;5101695;28;20467;-77
2022/10/31 02:46:20;;;;;;;10.05;4.07;;;;;;;7.71;100.00;99443.91;5103445;28;20051;-76
2022/10/31 02:48:51;;;;;;;6.05;3.67;;;;;;;7.72;100.00;99462.69;5098554;28;20582;-77
2022/10/31 02:51:19;;;;;;;9.82;3.85;;;;;;;7.88;100.00;99474.63;5098264;28;20051;-76
2022/10/31 02:53:45;;;;;;;13.13;3.80;;;;;;;7.79;100.00;99476.44;5100448;28;20036;-76
2022/10/31 02:56:14;;;;;;;8.00;3.92;;;;;;;7.86;100.00;99480.22;5103546;28;20047;-76
2022/10/31 02:58:45;;;;;;;11.05;4.30;;;;;;;7.81;100.00;99485.22;5104942;28;20050;-76
2022/10/31 03:01:44;;;;;;;9.20;3.63;;;;;;;7.61;100.00;99444.84;5102672;28;20048;-77
2022/10/31 03:04:37;;;;;;;13.93;3.92;;;;;;;7.56;100.00;99452.59;5098677;28;20051;-77
2022/10/31 03:07:12;;;;;;;11.07;3.60;;;;;;;7.51;100.00;99454.94;5100064;28;20130;-77
2022/10/31 03:09:48;;;;;;;7.20;4.00;;;;;;;7.54;100.00;99454.63;5100601;28;20050;-76
2022/10/31 03:12:23;;;;;;;8.43;3.92;;;;;;;7.64;100.00;99448.25;5100691;28;20437;-76
2022/10/31 03:14:57;;;;;;;8.15;4.00;;;;;;;7.61;100.00;99436.72;5109264;28;20046;-77
2022/10/31 03:17:29;;;;;;;13.38;4.68;;;;;;;7.70;100.00;99462.00;5105520;28;20096;-77
2022/10/31 03:20:01;;;;;;;10.18;4.63;;;;;;;7.44;100.00;99453.88;5100211;28;20503;-77
2022/10/31 03:22:31;;;;;;;15.07;5.20;;;;;;;7.55;100.00;99456.31;5106875;28;20047;-77
2022/10/31 03:24:58;;;;;;;17.60;4.95;;;;;;;7.50;100.00;99428.03;5103068;28;20044;-76
2022/10/31 03:27:28;;;;;;;7.72;4.28;;;;;;;7.57;100.00;99448.91;5098782;28;20048;-76
2022/10/31 03:29:58;;;;;;;14.43;5.13;;;;;;;7.53;100.00;99452.91;5092482;28;20505;-77
2022/10/31 03:32:30;;;;;;;14.13;5.00;;;;;;;7.57;100.00;99453.44;5097924;28;20055;-76
2022/10/31 03:35:01;;;;;;;8.13;4.13;;;;;;;7.54;100.00;99433.00;5096995;28;20048;-76
2022/10/31 03:37:31;;;;;;;12.60;4.18;;;;;;;7.43;100.00;99438.63;5100845;28;20058;-77
2022/10/31 03:39:59;;;;;;;;;;;;;;;7.60;100.00;99472.06;5110474;28;20052;-77
2022/10/31 03:42:29;;;;;;;6.63;3.55;;;;;;;7.43;100.00;99446.75;5096224;28;20054;-77
2022/10/31 03:45:02;;;;;;;6.60;3.80;;;;;;;7.64;100.00;99484.28;5095961;28;20050;-77
2022/10/31 03:47:29;;;;;;;6.13;3.63;;;;;;;7.57;100.00;99475.97;5097969;28;20058;-77
2022/10/31 03:49:57;;;;;;;10.38;4.20;;;;;;;7.30;100.00;99460.72;5100344;28;20051;-77
2022/10/31 03:52:30;;;;;;;7.78;3.45;;;;;;;7.35;100.00;99474.59;5104140;28;20052;-77
2022/10/31 03:54:59;;;;;;;8.68;3.83;;;;;;;7.18;100.00;99461.94;5111077;28;20506;-77
2022/10/31 03:57:32;;;;;;;7.68;3.97;;;;;;;7.21;100.00;99476.00;5101473;28;20054;-76
2022/10/31 04:00:04;;;;;;;9.75;3.95;;;;;;;7.23;100.00;99465.03;5105884;28;20047;-76
2022/10/31 04:02:34;;;;;;;11.82;3.80;;;;;;;7.40;100.00;99474.97;5094133;28;20058;-77
2022/10/31 04:05:03;;;;;;;15.05;6.18;;;;;;;7.40;100.00;99476.81;5094368;28;20396;-76
2022/10/31 04:07:40;;;;;;;7.43;3.67;;;;;;;7.34;100.00;99450.41;5099562;28;20418;-77
2022/10/31 04:10:10;;;;;;;8.23;3.78;;;;;;;7.41;100.00;99479.38;5094920;28;20483;-77
2022/10/31 04:12:39;;;;;;;7.20;3.38;;;;;;;7.28;100.00;99449.19;5101067;28;20043;-77
2022/10/31 04:15:09;;;;;;;11.75;3.90;;;;;;;7.34;100.00;99466.63;5097577;28;20050;-77
2022/10/31 04:17:39;;;;;;;8.98;3.42;;;;;;;7.19;100.00;99450.97;5099252;28;20052;-76
2022/10/31 04:20:09;;;;;;;10.07;3.72;;;;;;;7.16;100.00;99443.16;5099192;28;20130;-77
2022/10/31 04:22:36;;;;;;;10.02;3.63;;;;;;;7.29;100.00;99452.72;5097051;28;20044;-77
2022/10/31 04:25:02;;;;;;;7.20;3.75;;;;;;;7.37;100.00;99450.09;5102036;28;20040;-76
2022/10/31 04:27:29;;;;;;;7.57;3.97;;;;;;;7.19;100.00;99434.72;5093560;28;20126;-76
2022/10/31 04:29:55;;;;;;;6.82;3.75;;;;;;;7.28;100.00;99461.84;5100894;28;20048;-77
2022/10/31 04:32:22;;;;;;;8.98;3.70;;;;;;;7.20;100.00;99432.91;5092559;28;20075;-76
2022/10/31 04:34:48;;;;;;;9.57;4.05;;;;;;;7.21;100.00;99445.38;5094535;28;20044;-77
2022/10/31 04:37:16;;;;;;;6.88;4.15;;;;;;;7.08;100.00;99418.78;5099832;28;20548;-76
2022/10/31 04:39:43;;;;;;;7.93;3.45;;;;;;;7.23;100.00;99448.81;5099988;28;20052;-77
2022/10/31 04:42:09;;;;;;;8.15;4.20;;;;;;;7.05;100.00;99429.91;5098305;28;20044;-76
2022/10/31 04:44:35;;;;;;;9.57;3.92;;;;;;;7.13;100.00;99461.56;5097295;28;20407;-76
2022/10/31 04:47:02;;;;;;;12.70;3.25;;;;;;;6.94;100.00;99419.31;5097644;28;20338;-77
2022/10/31 04:49:29;;;;;;;5.70;3.45;;;;;;;6.89;100.00;99417.06;5098968;28;20043;-77
2022/10/31 04:51:55;;;;;;;9.57;3.65;;;;;;;7.06;100.00;99436.97;5099150;28;20048;-77
2022/10/31 04:54:23;;;;;;;6.15;3.35;;;;;;;6.86;100.00;99430.91;5102526;28;20070;-77
2022/10/31 04:56:49;;;;;;;7.75;3.80;;;;;;;6.92;100.00;99430.28;5099314;28;20151;-78
2022/10/31 04:59:16;;;;;;;5.03;3.25;;;;;;;6.86;100.00;99431.75;5112075;28;20426;-77
2022/10/31 05:01:42;;;;;;;8.45;3.75;;;;;;;6.83;100.00;99434.75;5111623;28;20497;-76
2022/10/31 05:04:09;;;;;;;8.60;3.60;;;;;;;6.73;100.00;99407.81;5099225;28;20056;-77
2022/10/31 05:06:35;;;;;;;13.15;3.60;;;;;;;6.92;100.00;99432.97;5104920;28;20051;-77
2022/10/31 05:09:02;;;;;;;11.05;3.45;;;;;;;6.85;100.00;99408.44;5104462;28;20052;-77
2022/10/31 05:11:30;;;;;;;10.27;4.63;;;;;;;6.94;100.00;99409.38;5102302;28;20055;-77
2022/10/31 05:13:56;;;;;;;13.25;5.18;;;;;;;6.93;100.00;99417.63;5106669;28;20040;-76
2022/10/31 05:16:23;;;;;;;39.33;4.85;;;;;;;6.95;100.00;99411.03;5110647;28;20048;-76
2022/10/31 05:18:50;;;;;;;17.88;4.13;;;;;;;6.83;100.00;99405.03;5111516;28;20130;-77
2022/10/31 05:21:16;;;;;;;5.97;3.47;;;;;;;6.77;100.00;99396.69;5109634;28;20108;-77
2022/10/31 05:23:43;;;;;;;15.52;5.47;;;;;;;6.64;100.00;99394.38;5101245;28;20058;-76
2022/10/31 05:26:09;;;;;;;6.78;3.78;;;;;;;6.62;100.00;99391.81;5102933;28;20052;-76
2022/10/31 05:28:37;;;;;;;9.02;4.22;;;;;;;6.60;100.00;99391.13;5103878;28;20044;-77
2022/10/31 05:31:04;;;;;;;11.45;4.45;;;;;;;6.79;100.00;99417.16;5101822;28;20356;-76
2022/10/31 05:33:30;;;;;;;6.78;3.92;;;;;;;6.72;100.00;99391.75;5095802;28;20063;-77
2022/10/31 05:35:57;;;;;;;12.20;4.25;;;;;;;6.73;100.00;99396.16;5106544;28;20126;-76
2022/10/31 05:38:23;;;;;;;7.55;3.88;;;;;;;6.76;100.00;99403.09;5096469;28;20414;-76
2022/10/31 05:40:50;;;;;;;11.73;3.90;;;;;;;6.82;100.00;99422.25;5100896;28;20082;-76
2022/10/31 05:43:17;;;;;;;7.53;3.45;;;;;;;6.90;100.00;99424.19;5099612;28;20044;-77
2022/10/31 05:45:44;;;;;;;6.63;3.83;;;;;;;6.61;100.00;99382.03;5106890;28;20036;-77
2022/10/31 05:48:11;;;;;;;10.95;4.35;;;;;;;6.79;100.00;99417.16;5093667;28;20399;-77
2022/10/31 05:50:38;;;;;;;8.60;4.50;;;;;;;6.48;100.00;99377.00;5102804;28;20394;-77
2022/10/31 05:53:06;;;;;;;5.18;3.35;;;;;;;6.50;100.00;99399.31;5103340;28;20055;-77
2022/10/31 05:55:33;;;;;;;6.57;3.55;;;;;;;6.52;100.00;99402.72;5106473;28;20046;-76
2022/10/31 05:58:00;;;;;;;8.75;3.55;;;;;;;6.58;100.00;99420.16;5105016;28;20585;-76
2022/10/31 06:00:27;;;;;;;7.20;3.60;;;;;;;6.46;100.00;99397.06;5107690;28;20410;-77
2022/10/31 06:03:00;;;;;;;14.13;3.67;;;;;;;6.38;100.00;99389.72;5097832;28;20054;-77
2022/10/31 06:05:26;;;;;;;7.50;3.70;;;;;;;6.50;100.00;99399.31;5101968;28;20055;-77
2022/10/31 06:07:53;;;;;;;11.32;4.05;;;;;;;6.51;100.00;99384.81;5102362;28;20039;-77
2022/10/31 06:10:20;;;;;;;6.90;4.10;;;;;;;6.42;100.00;99387.59;5096303;28;20138;-76
2022/10/31 06:12:47;;;;;;;14.10;3.85;;;;;;;6.63;100.00;99417.00;5104694;28;20543;-76
2022/10/31 06:15:14;;;;;;;8.10;3.30;;;;;;;6.45;100.00;99392.69;5099567;28;20409;-76
2022/10/31 06:17:41;;;;;;;10.25;4.00;;;;;;;6.54;100.00;99407.97;5097883;28;20051;-76
2022/10/31 06:20:10;;;;;;;6.75;3.88;;;;;;;6.44;100.00;99397.22;5103947;28;20050;-76
2022/10/31 06:22:36;;;;;;;14.95;4.13;;;;;;;6.47;100.00;99382.56;5100537;28;20123;-76
2022/10/31 06:25:03;;;;;;;7.85;3.50;;;;;;;6.48;100.00;99393.22;5107105;28;20462;-76
2022/10/31 06:27:30;;;;;;;10.55;3.40;;;;;;;6.57;100.00;99412.22;5105723;28;20058;-77
2022/10/31 06:29:56;;;;;;;8.02;4.43;;;;;;;6.53;100.00;99396.31;5103708;28;20051;-76
2022/10/31 06:32:23;;;;;;;12.20;3.90;;;;;;;6.60;100.00;99409.22;5103765;28;20056;-76
2022/10/31 06:34:49;;;;;;;9.05;3.92;;;;;;;6.51;100.00;99384.81;5099388;28;20380;-76
2022/10/31 06:37:17;;;;;;;17.48;4.00;;;;;;;6.66;100.00;99409.44;5100544;28;20048;-76
2022/10/31 06:39:44;;;;;;;15.45;4.55;;;;;;;6.60;100.00;99387.59;5102565;28;20047;-76
2022/10/31 06:42:10;;;;;;;10.93;4.05;;;;;;;6.51;100.00;99381.25;5109537;28;20051;-75
2022/10/31 06:44:37;;;;;;;13.18;4.78;;;;;;;6.60;100.00;99391.13;5097469;28;20043;-76
2022/10/31 06:47:04;;;;;;;23.33;4.82;;;;;;;6.56;100.00;99389.75;5101434;28;20044;-77
2022/10/31 06:49:30;;;;;;;32.17;6.72;;;;;;;6.63;100.00;99393.53;5103877;28;20505;-77
2022/10/31 06:51:57;;;;;;;33.38;5.63;;;;;;;6.60;100.00;99384.91;5100572;28;20134;-77
2022/10/31 06:54:25;;;;;;;12.15;5.78;;;;;;;6.70;100.00;99394.63;5101892;28;20050;-77
2022/10/31 06:56:52;;;;;;;14.27;5.25;;;;;;;6.75;100.00;99396.84;5101331;28;20501;-76
2022/10/31 06:59:19;;;;;;;12.00;6.18;;;;;;;6.95;100.00;99411.03;5099248;28;20482;-77
2022/10/31 07:01:45;;;;;;;19.25;5.70;;;;;;;7.05;100.00;99419.09;5097764;28;20044;-77
2022/10/31 07:04:12;;;;;;;26.67;7.32;;;;;;;7.05;100.00;99408.28;5107034;28;20044;-77
2022/10/31 07:06:39;;;;;;;24.75;6.60;;;;;;;7.19;100.00;99426.63;5104061;28;20039;-77
2022/10/31 07:09:06;;;;;;;20.98;7.00;;;;;;;7.24;100.00;99404.50;5111806;28;20048;-77
2022/10/31 07:11:33;;;;;;;10.45;6.07;;;;;;;7.27;100.00;99396.09;5105540;28;20048;-77
2022/10/31 07:14:00;;;;;;;16.35;5.95;;;;;;;7.41;100.00;99424.44;5096411;28;20098;-77
2022/10/31 07:16:27;;;;;;;22.63;6.00;;;;;;;7.46;100.00;99430.22;5110631;28;20056;-77
2022/10/31 07:18:53;;;;;;;24.90;7.10;;;;;;;7.48;100.00;99432.75;5111036;28;20062;-77
2022/10/31 07:21:20;;;;;;;16.60;6.50;;;;;;;7.34;100.00;99421.50;5100075;28;20046;-77
2022/10/31 07:23:48;;;;;;;17.02;6.20;;;;;;;7.31;100.00;99411.00;5102244;28;20062;-77
2022/10/31 07:26:15;;;;;;;15.63;5.43;;;;;;;7.46;100.00;99423.97;5098292;28;20419;-77
2022/10/31 07:28:42;;;;;;;22.95;5.55;;;;;;;7.51;100.00;99416.19;5095366;28;20039;-77
2022/10/31 07:31:09;;;;;;;22.20;5.82;;;;;;;7.59;100.00;99443.31;5108171;28;20065;-77
2022/10/31 07:33:35;;;;;;;18.60;6.20;;;;;;;7.56;100.00;99439.06;5096810;28;20454;-77
2022/10/31 07:36:02;;;;;;;17.15;5.13;;;;;;;7.51;100.00;99433.31;5108025;28;20503;-77
2022/10/31 07:38:29;;;;;;;16.88;5.57;;;;;;;7.63;100.00;99436.56;5093939;28;20051;-79
2022/10/31 07:40:55;;;;;;;21.42;4.63;;;;;;;7.48;100.00;99430.06;5097814;28;20134;-79
2022/10/31 07:43:22;;;;;;;28.50;8.82;;;;;;;7.76;100.00;99444.28;5103939;28;20044;-79
2022/10/31 07:45:54;;;;;;;22.10;7.63;;;;;;;7.71;100.00;99422.28;5104413;28;20115;-79
2022/10/31 07:48:20;;;;;;;18.08;7.43;;;;;;;7.82;100.00;99427.38;5094420;28;20044;-76
2022/10/31 07:50:47;;;;;;;10.85;5.32;;;;;;;7.73;100.00;99407.53;5109913;28;20051;-77
2022/10/31 07:53:15;;;;;;;6.07;4.35;;;;;;;7.83;100.00;99414.69;5109291;28;20410;-77
2022/10/31 07:55:42;;;;;;;7.85;4.60;;;;;;;7.87;100.00;99416.06;5109601;28;20050;-77
2022/10/31 07:58:10;;;;;;;9.45;4.55;;;;;;;8.06;100.00;99426.66;5096885;28;20054;-77
2022/10/31 08:00:38;;;;;;;7.82;4.07;;;;;;;8.06;100.00;99410.41;5100586;28;20127;-77
2022/10/31 08:03:08;;;;;;;10.05;4.88;;;;;;;8.13;100.00;99397.94;5109276;28;20077;-77
2022/10/31 08:05:35;;;;;;;8.80;4.03;;;;;;;8.23;100.00;99388.81;5108402;28;20056;-77
2022/10/31 08:08:02;;;;;;;7.38;4.47;;;;;;;8.30;100.00;99398.00;5109054;28;20058;-78
2022/10/31 08:10:28;;;;;;;9.70;4.32;;;;;;;8.59;100.00;99430.09;5095309;28;20044;-78
2022/10/31 08:12:59;;;;;;;8.27;4.93;;;;;;;8.60;100.00;99412.81;5097333;28;20048;-77
2022/10/31 08:15:26;;;;;;;10.48;4.85;;;;;;;8.61;100.00;99392.84;5096394;28;20079;-77
2022/10/31 08:17:53;;;;;;;16.33;4.53;;;;;;;8.77;100.00;99393.88;5097320;28;20048;-77
2022/10/31 08:20:21;;;;;;;7.32;5.05;;;;;;;8.85;100.00;99378.47;5104770;28;20054;-77
2022/10/31 08:22:58;;;;;;;7.78;4.90;;;;;;;9.01;100.00;99409.31;5095894;28;20050;-77
2022/10/31 08:25:26;;;;;;;10.45;6.40;;;;;;;8.89;100.00;99378.97;5094916;28;20056;-77
2022/10/31 08:27:54;;;;;;;14.07;6.97;;;;;;;9.03;100.00;99393.72;5099965;28;20045;-78
2022/10/31 08:30:21;;;;;;;13.10;6.78;;;;;;;9.35;100.00;99413.72;5105944;28;20040;-78
2022/10/31 08:32:48;;;;;;;11.38;5.72;;;;;;;9.37;100.00;99409.81;5114254;28;20051;-78
2022/10/31 08:35:15;;;;;;;7.50;5.15;;;;;;;9.35;100.00;99392.03;5098467;28;20040;-78
2022/10/31 08:37:43;;;;;;;11.55;5.65;;;;;;;9.55;100.00;99416.91;5105420;28;20059;-78
2022/10/31 08:40:12;;;;;;;18.98;5.80;;;;;;;9.50;100.00;99400.28;5104317;28;20044;-78
2022/10/31 08:42:39;;;;;;;9.17;5.80;;;;;;;9.55;100.00;99390.63;5103348;28;20047;-78
2022/10/31 08:45:06;;;;;;;7.95;4.43;;;;;;;9.56;100.00;99372.50;5110601;28;20043;-78
2022/10/31 08:47:32;;;;;;;9.55;5.15;;;;;;;9.70;100.00;99379.91;5114409;28;20054;-78
2022/10/31 08:49:59;;;;;;;10.55;5.40;;;;;;;9.88;100.00;99387.81;5109892;28;20062;-78
2022/10/31 08:52:26;;;;;;;11.63;6.13;;;;;;;9.90;100.00;99384.94;5095567;28;20055;-78
2022/10/31 08:54:54;;;;;;;12.13;6.93;;;;;;;9.94;100.00;99361.00;5099172;28;20048;-78
2022/10/31 08:57:20;;;;;;;22.60;6.85;;;;;;;9.90;100.00;99374.06;5100366;28;20048;-77
2022/10/31 08:59:47;;;;;;;20.13;6.07;;;;;;;10.12;100.00;99371.59;5099087;28;20054;-78
2022/10/31 09:02:13;;;;;;;14.55;7.13;;;;;;;10.22;100.00;99383.97;5104776;28;20062;-78
2022/10/31 09:04:40;;;;;;;16.10;7.30;;;;;;;10.29;100.00;99365.06;5112998;28;20573;-78
2022/10/31 09:07:07;;;;;;;12.95;6.35;;;;;;;10.46;100.00;99368.56;5103329;28;20054;-78
2022/10/31 09:09:33;;;;;;;21.50;6.47;;;;;;;10.51;100.00;99379.75;5093751;28;20144;-78
2022/10/31 09:12:01;;;;;;;10.88;6.78;;;;;;;10.55;100.00;99369.34;5104929;28;20406;-78
2022/10/31 09:14:28;;;;;;;14.13;6.18;;;;;;;10.54;100.00;99351.38;5104424;28;20044;-78
2022/10/31 09:16:54;;;;;;;16.02;6.72;;;;;;;10.57;100.00;99340.97;5093358;28;20051;-77
2022/10/31 09:19:21;;;;;;;16.58;6.82;;;;;;;10.71;100.00;99346.66;5107410;28;20052;-77
2022/10/31 09:21:47;;;;;;;26.45;6.45;;;;;;;10.97;100.00;99378.91;5114141;28;20052;-78
2022/10/31 09:24:14;;;;;;;25.48;6.38;;;;;;;10.93;100.00;99362.13;5112461;28;20051;-78
2022/10/31 09:26:40;;;;;;;14.00;5.80;;;;;;;11.05;100.00;99356.22;5108719;28;20055;-77
2022/10/31 09:29:09;;;;;;;17.27;6.20;;;;;;;11.06;100.00;99342.44;5104856;28;20048;-78
2022/10/31 09:31:36;;;;;;;18.75;8.30;;;;;;;11.37;100.00;99373.31;5093213;28;20097;-78
2022/10/31 09:34:03;;;;;;;15.73;7.90;;;;;;;11.47;100.00;99363.84;5099480;28;20043;-78
2022/10/31 09:36:30;;;;;;;24.95;7.35;;;;;;;11.34;100.00;99342.69;5103021;28;20498;-78
2022/10/31 09:38:56;;;;;;;17.85;6.25;;;;;;;11.48;100.00;99356.50;5104173;28;20134;-78
2022/10/31 09:41:29;;;;;;;16.02;6.28;;;;;;;11.61;100.00;99342.25;5112580;28;20234;-77
2022/10/31 09:44:05;;;;;;;13.55;5.53;;;;;;;11.73;100.00;99350.78;5112995;28;20135;-78
2022/10/31 09:46:44;;;;;;;19.42;6.78;;;;;;;11.77;100.00;99361.13;5112998;28;20055;-78
2022/10/31 09:49:31;;;;;;;15.82;7.00;;;;;;;12.13;100.00;99362.25;5110381;28;20407;-78
2022/10/31 09:52:03;;;;;;;15.48;6.40;;;;;;;12.18;100.00;99349.75;5099800;28;20078;-79
2022/10/31 09:54:38;;;;;;;17.33;6.38;;;;;;;12.13;100.00;99329.56;5103006;28;20143;-79
2022/10/31 09:57:06;;;;;;;18.38;6.47;;;;;;;12.39;100.00;99342.66;5091214;28;20452;-79
2022/10/31 09:59:36;;;;;;;12.52;5.70;;;;;;;12.20;100.00;99320.41;5103417;28;20554;-78
2022/10/31 10:02:10;;;;;;;9.90;5.03;;;;;;;12.28;100.00;99319.44;5112866;28;20047;-78
2022/10/31 10:04:44;;;;;;;13.18;6.63;;;;;;;12.28;100.00;99322.19;5110637;28;20383;-78
2022/10/31 10:07:20;;;;;;;11.48;5.90;;;;;;;12.46;100.00;99343.56;5108949;28;20445;-78
2022/10/31 10:09:46;;;;;;;11.77;5.88;;;;;;;12.32;100.00;99322.66;5113037;28;20135;-78
2022/10/31 10:12:20;;;;;;;18.00;5.47;;;;;;;12.54;100.00;99345.31;5111179;28;20105;-79
2022/10/31 10:15:06;;;;;;;14.38;5.18;;;;;;;12.55;100.00;99334.22;5113045;28;20047;-78
2022/10/31 10:17:42;;;;;;;9.82;4.93;;;;;;;12.68;100.00;99328.06;5112478;28;20383;-78
2022/10/31 10:20:24;;;;;;;13.95;5.60;;;;;;;12.66;100.00;99319.25;5100328;28;20059;-77
2022/10/31 10:22:58;;;;;;;18.33;5.55;;;;;;;12.76;100.00;99310.72;5111936;28;20051;-78
2022/10/31 10:25:29;;;;;;;9.05;5.05;;;;;;;12.85;100.00;99320.47;5110343;28;20074;-78
2022/10/31 10:28:09;;;;;;;15.85;5.20;;;;;;;12.98;100.00;99352.50;5112139;28;20101;-80
2022/10/31 10:30:42;;;;;;;16.23;6.40;;;;;;;13.05;100.00;99344.34;5096824;28;20079;-77
2022/10/31 10:33:15;;;;;;;16.40;5.32;;;;;;;13.17;100.00;99328.28;5091291;28;20745;-78
2022/10/31 10:35:47;;;;;;;14.07;5.65;;;;;;;13.17;100.00;99315.50;5100160;28;20048;-78
2022/10/31 10:38:20;;;;;;;12.13;5.68;;;;;;;13.38;100.00;99321.97;5092295;28;20059;-78
2022/10/31 10:40:47;;;;;;;13.30;5.20;;;;;;;13.45;100.00;99312.78;5098903;28;20074;-78
2022/10/31 10:43:21;;;;;;;13.32;5.05;;;;;;;13.75;100.00;99337.13;5111675;28;20051;-78
2022/10/31 10:48:42;;;;;;;;;;;;;;;13.94;100.00;99321.03;5091495;28;20168;-78
2022/10/31 10:51:21;;;;;;;17.80;5.35;;;;;;;13.94;100.00;99313.69;5092778;28;19926;-78
2022/10/31 10:54:01;;;;;;;15.90;6.50;;;;;;;14.03;100.00;99291.63;5111268;28;20043;-78
2022/10/31 10:56:51;;;;;;;15.02;5.90;;;;;;;14.13;100.00;99289.34;5095645;28;20048;-78
2022/10/31 10:59:22;;;;;;;10.48;5.22;;;;;;;14.32;100.00;99293.22;5091149;28;20056;-78
2022/10/31 11:01:51;;;;;;;12.02;5.05;;;;;;;14.19;100.00;99280.34;5099911;28;20067;-79
2022/10/31 11:04:31;;;;;;;9.88;4.65;;;;;;;14.37;100.00;99290.69;5108572;28;20502;-78
2022/10/31 11:06:58;;;;;;;22.53;5.20;;;;;;;14.37;100.00;99273.44;5111140;28;20050;-78
2022/10/31 11:09:25;;;;;;;17.45;4.68;;;;;;;14.56;100.00;99296.41;5111132;28;20304;-78
2022/10/31 11:11:52;;;;;;;16.15;4.80;;;;;;;14.54;100.00;99284.84;5102511;28;20514;-78
2022/10/31 11:14:20;;;;;;;25.10;6.40;;;;;;;14.65;100.00;99281.53;5106578;28;20506;-78
2022/10/31 11:16:49;;;;;;;8.60;4.15;;;;;;;14.71;100.00;99269.75;5103312;28;20088;-78
2022/10/31 11:19:19;;;;;;;8.38;4.63;;;;;;;14.63;100.00;99269.94;5109780;28;20052;-78
2022/10/31 11:21:48;;;;;;;9.45;4.82;;;;;;;14.69;100.00;99274.56;5091324;28;20139;-78
2022/10/31 11:24:18;;;;;;;11.55;5.43;;;;;;;14.84;100.00;99271.63;5091041;28;20431;-78
2022/10/31 11:26:47;;;;;;;18.20;4.68;;;;;;;14.86;100.00;99259.44;5110942;28;20453;-78
2022/10/31 11:29:16;;;;;;;12.93;4.80;;;;;;;14.80;100.00;99249.34;5105298;28;20058;-78
2022/10/31 11:31:45;;;;;;;10.30;5.38;;;;;;;14.83;100.00;99237.13;5099367;28;20044;-78
2022/10/31 11:34:19;;;;;;;15.38;5.18;;;;;;;15.19;100.00;99271.41;5092023;28;20056;-78
2022/10/31 11:36:49;;;;;;;10.88;5.43;;;;;;;14.92;100.00;99232.25;5092633;28;20484;-78
2022/10/31 11:39:20;;;;;;;16.80;4.38;;;;;;;15.07;100.00;99252.06;5099893;28;20052;-78